Time;durP1;ratioP1;P1;durP2;ratioP2;P2;SDS_P1;SDS_P2;PMS_P1;PMS_P2;Temp;Humidity;BMP_temperature;BMP_pressure;BME280_temperature;BME280_humidity;BME280_pressure;Samples;Min_cycle;Max_cycle;Signal;HPM_P1;HPM_P2
2021/07/09 00:01:46;;;;;;;13.13;11.57;;;18.70;84.80;;;;;;5110960;28;20553;-84
2021/07/09 00:04:12;;;;;;;14.98;12.57;;;18.70;84.90;;;;;;5109572;28;20036;-83
2021/07/09 00:06:37;;;;;;;14.30;12.82;;;18.60;84.80;;;;;;5110268;28;20028;-83
2021/07/09 00:09:05;;;;;;;13.23;11.93;;;18.70;84.90;;;;;;5110571;28;20030;-83
2021/07/09 00:11:32;;;;;;;14.05;12.63;;;18.60;84.80;;;;;;5093072;28;20036;-83
2021/07/09 00:13:58;;;;;;;12.45;11.25;;;18.60;84.70;;;;;;5111245;28;20034;-81
2021/07/09 00:16:23;;;;;;;11.90;10.73;;;18.70;85.20;;;;;;5092681;28;20032;-83
2021/07/09 00:18:49;;;;;;;13.20;10.85;;;18.60;84.60;;;;;;5110124;28;20035;-83
2021/07/09 00:21:16;;;;;;;11.93;10.73;;;18.60;84.60;;;;;;5075760;28;20455;-84
2021/07/09 00:23:44;;;;;;;12.57;11.25;;;18.60;84.60;;;;;;5110106;28;20015;-83
2021/07/09 00:26:10;;;;;;;11.90;10.60;;;18.60;84.50;;;;;;5109782;28;20058;-83
2021/07/09 00:28:35;;;;;;;12.00;10.90;;;18.60;84.40;;;;;;5111726;28;20459;-83
2021/07/09 00:31:01;;;;;;;13.30;11.95;;;18.60;84.40;;;;;;5092994;28;20034;-81
2021/07/09 00:33:27;;;;;;;12.48;11.05;;;18.60;84.40;;;;;;5111185;28;20102;-83
2021/07/09 00:35:52;;;;;;;12.30;11.20;;;18.60;84.40;;;;;;5076536;28;20387;-84
2021/07/09 00:38:18;;;;;;;13.88;12.48;;;18.60;84.40;;;;;;5092742;28;20028;-84
2021/07/09 00:40:44;;;;;;;12.13;10.88;;;18.60;84.30;;;;;;5092929;28;20063;-83
2021/07/09 00:43:10;;;;;;;12.85;11.23;;;18.50;84.10;;;;;;5109383;28;20034;-83
2021/07/09 00:45:36;;;;;;;12.75;11.18;;;18.50;84.10;;;;;;5076359;28;20122;-84
2021/07/09 00:48:01;;;;;;;12.75;11.43;;;18.50;84.20;;;;;;5110007;28;20115;-83
2021/07/09 00:50:27;;;;;;;11.35;10.27;;;18.50;84.20;;;;;;5075211;28;20048;-84
2021/07/09 00:52:53;;;;;;;14.38;11.30;;;18.50;84.10;;;;;;5110008;28;20085;-84
2021/07/09 00:55:20;;;;;;;10.38;9.38;;;18.50;84.10;;;;;;5092017;28;20115;-84
2021/07/09 00:57:52;;;;;;;11.18;9.77;;;18.50;84.10;;;;;;5091952;28;20061;-84
2021/07/09 01:00:20;;;;;;;12.13;10.90;;;18.50;84.00;;;;;;5110501;28;20046;-84
2021/07/09 01:02:46;;;;;;;12.80;11.32;;;18.50;84.00;;;;;;5114118;28;20024;-84
2021/07/09 01:05:13;;;;;;;12.50;11.23;;;18.50;84.10;;;;;;5114025;28;20054;-84
2021/07/09 01:07:38;;;;;;;13.30;11.95;;;18.50;84.20;;;;;;5113724;28;20072;-83
2021/07/09 01:10:08;;;;;;;13.02;11.65;;;18.40;84.30;;;;;;5113860;28;20031;-84
2021/07/09 01:12:35;;;;;;;14.80;13.25;;;18.40;84.40;;;;;;5113712;28;20020;-82
2021/07/09 01:15:03;;;;;;;17.52;15.73;;;18.50;84.40;;;;;;5113519;28;20379;-84
2021/07/09 01:17:29;;;;;;;15.35;13.75;;;18.40;84.40;;;;;;5112710;28;20097;-85
2021/07/09 01:19:55;;;;;;;13.00;11.57;;;18.40;84.40;;;;;;5113795;28;20059;-84
2021/07/09 01:22:23;;;;;;;13.65;11.95;;;18.40;84.40;;;;;;5114030;28;20059;-85
2021/07/09 01:24:49;;;;;;;13.65;11.85;;;18.40;84.50;;;;;;5096441;28;20126;-86
2021/07/09 01:27:17;;;;;;;13.05;11.75;;;18.40;84.50;;;;;;5112548;28;20479;-85
2021/07/09 01:29:43;;;;;;;13.73;12.38;;;18.40;84.60;;;;;;5113342;28;20375;-84
2021/07/09 01:32:08;;;;;;;12.70;10.80;;;18.40;84.70;;;;;;5113751;28;20062;-83
2021/07/09 01:34:34;;;;;;;13.10;11.80;;;18.30;84.70;;;;;;5096542;28;20432;-84
2021/07/09 01:37:17;;;;;;;15.18;13.57;;;18.30;84.70;;;;;;5096794;28;20036;-83
2021/07/09 01:39:44;;;;;;;12.55;11.25;;;18.30;84.80;;;;;;5113433;28;20049;-83
2021/07/09 01:42:11;;;;;;;12.90;11.48;;;18.30;84.80;;;;;;5114374;28;20543;-81
2021/07/09 01:44:38;;;;;;;13.32;11.75;;;18.40;84.80;;;;;;5112968;28;20118;-84
2021/07/09 01:47:05;;;;;;;14.10;12.13;;;18.40;84.90;;;;;;5113505;28;20032;-85
2021/07/09 01:49:46;;;;;;;14.10;12.65;;;18.40;84.90;;;;;;5112304;28;20114;-85
2021/07/09 01:52:12;;;;;;;13.45;12.13;;;18.30;85.00;;;;;;5112460;28;20474;-80
2021/07/09 01:54:37;;;;;;;15.52;13.93;;;18.30;85.00;;;;;;5112695;28;20479;-84
2021/07/09 01:57:03;;;;;;;14.90;12.93;;;18.30;85.20;;;;;;5114425;28;20069;-84
2021/07/09 01:59:29;;;;;;;15.60;13.98;;;18.30;85.40;;;;;;5095334;28;20035;-85
2021/07/09 02:01:55;;;;;;;16.63;14.85;;;18.30;85.40;;;;;;5113492;28;20028;-84
2021/07/09 02:04:20;;;;;;;17.83;15.02;;;18.20;85.40;;;;;;5112722;28;20036;-85
2021/07/09 02:06:46;;;;;;;17.85;16.08;;;18.20;86.00;;;;;;5113475;28;20479;-85
2021/07/09 02:09:12;;;;;;;14.48;12.98;;;18.10;85.60;;;;;;5112682;28;20463;-84
2021/07/09 02:11:37;;;;;;;15.63;14.13;;;18.20;85.70;;;;;;5112230;28;20031;-84
2021/07/09 02:14:03;;;;;;;15.27;13.73;;;18.10;85.50;;;;;;5096586;28;20580;-85
2021/07/09 02:16:29;;;;;;;17.25;15.43;;;18.10;85.40;;;;;;5113617;28;20173;-84
2021/07/09 02:18:54;;;;;;;17.65;15.35;;;18.10;85.30;;;;;;5096505;28;20031;-84
2021/07/09 02:21:20;;;;;;;14.20;12.65;;;18.10;85.20;;;;;;5078187;28;20042;-84
2021/07/09 02:23:45;;;;;;;14.95;13.23;;;18.10;85.10;;;;;;5096041;28;20216;-85
2021/07/09 02:26:11;;;;;;;17.77;14.48;;;18.10;85.10;;;;;;5095968;28;20057;-84
2021/07/09 02:28:37;;;;;;;17.02;14.60;;;18.10;85.30;;;;;;5113282;28;20030;-85
2021/07/09 02:31:03;;;;;;;15.45;13.77;;;18.10;84.70;;;;;;5112642;28;20028;-85
2021/07/09 02:33:28;;;;;;;15.52;13.93;;;18.10;84.50;;;;;;5095358;28;20455;-85
2021/07/09 02:35:54;;;;;;;14.63;13.15;;;18.00;84.40;;;;;;5095934;28;20532;-85
2021/07/09 02:38:20;;;;;;;16.23;14.63;;;18.00;84.30;;;;;;5095849;28;20027;-82
2021/07/09 02:40:45;;;;;;;18.70;15.32;;;18.00;84.00;;;;;;5112802;28;20027;-85
2021/07/09 02:43:11;;;;;;;16.55;14.85;;;18.00;84.00;;;;;;5095933;28;20031;-85
2021/07/09 02:45:37;;;;;;;15.63;13.93;;;17.90;84.00;;;;;;5078336;28;20101;-84
2021/07/09 02:48:03;;;;;;;14.75;13.07;;;17.90;83.80;;;;;;5095717;28;20120;-84
2021/07/09 02:50:28;;;;;;;13.77;11.82;;;17.90;83.80;;;;;;5111561;28;20031;-86
2021/07/09 02:52:54;;;;;;;14.02;12.57;;;17.90;83.80;;;;;;5112841;28;20028;-84
2021/07/09 02:55:22;;;;;;;14.80;12.80;;;17.90;83.60;;;;;;5112238;28;20031;-86
2021/07/09 02:57:48;;;;;;;17.13;13.73;;;17.90;83.40;;;;;;5113608;28;20027;-85
2021/07/09 03:00:16;;;;;;;15.38;13.77;;;17.90;83.20;;;;;;5113360;28;20038;-85
2021/07/09 03:02:42;;;;;;;13.95;12.45;;;17.90;83.00;;;;;;5112492;28;20608;-86
2021/07/09 03:05:09;;;;;;;16.48;13.07;;;17.90;82.90;;;;;;5094447;28;20059;-85
2021/07/09 03:07:36;;;;;;;16.00;12.95;;;17.80;82.70;;;;;;5111125;28;20023;-85
2021/07/09 03:10:02;;;;;;;14.77;12.25;;;17.90;82.70;;;;;;5112736;28;20042;-84
2021/07/09 03:12:29;;;;;;;13.90;12.50;;;17.80;82.60;;;;;;5112247;28;20039;-84
2021/07/09 03:14:54;;;;;;;15.05;13.45;;;17.80;82.50;;;;;;5094414;28;20042;-85
2021/07/09 03:17:20;;;;;;;13.68;11.63;;;17.80;82.40;;;;;;5094551;28;20028;-84
2021/07/09 03:19:46;;;;;;;13.48;12.07;;;17.80;82.60;;;;;;5110675;28;20127;-86
2021/07/09 03:22:11;;;;;;;13.13;11.75;;;17.80;82.60;;;;;;5112286;28;20035;-84
2021/07/09 03:24:37;;;;;;;16.05;13.45;;;17.80;82.60;;;;;;5111003;28;20057;-84
2021/07/09 03:27:05;;;;;;;14.80;12.10;;;17.80;82.50;;;;;;5094327;28;20032;-85
2021/07/09 03:29:31;;;;;;;14.10;11.68;;;17.80;82.60;;;;;;5093418;28;20146;-86
2021/07/09 03:31:56;;;;;;;15.73;12.43;;;17.80;82.60;;;;;;5094301;28;20499;-85
2021/07/09 03:34:22;;;;;;;13.93;12.25;;;17.70;82.60;;;;;;5094340;28;20076;-85
2021/07/09 03:36:48;;;;;;;12.45;11.20;;;17.70;82.60;;;;;;5110014;28;20024;-85
2021/07/09 03:39:14;;;;;;;14.80;12.65;;;17.70;82.60;;;;;;5077050;28;20030;-84
2021/07/09 03:41:41;;;;;;;13.00;11.63;;;17.70;82.50;;;;;;5093353;28;20511;-84
2021/07/09 03:44:07;;;;;;;13.32;11.82;;;17.70;83.00;;;;;;5110959;28;20023;-85
2021/07/09 03:46:34;;;;;;;12.98;11.63;;;17.70;82.40;;;;;;5110270;28;20051;-86
2021/07/09 03:49:00;;;;;;;12.27;10.98;;;17.70;82.30;;;;;;5110709;28;20031;-85
2021/07/09 03:51:26;;;;;;;12.68;11.38;;;17.70;82.50;;;;;;5093977;28;20048;-85
2021/07/09 03:53:54;;;;;;;13.27;11.75;;;17.70;82.50;;;;;;5093269;28;20491;-86
2021/07/09 03:56:21;;;;;;;14.65;11.45;;;17.70;82.40;;;;;;5077966;28;20105;-86
2021/07/09 03:58:47;;;;;;;14.20;12.70;;;17.70;82.50;;;;;;5110063;28;20031;-85
2021/07/09 04:01:13;;;;;;;14.27;11.52;;;17.70;82.40;;;;;;5110609;28;20034;-85
2021/07/09 04:03:39;;;;;;;12.25;10.95;;;17.70;82.40;;;;;;5075091;28;20031;-85
2021/07/09 04:06:05;;;;;;;13.88;11.68;;;17.70;82.40;;;;;;5110512;28;20048;-85
2021/07/09 04:08:30;;;;;;;14.88;12.40;;;17.80;82.30;;;;;;5093497;28;20034;-85
2021/07/09 04:10:56;;;;;;;15.60;12.68;;;17.80;82.20;;;;;;5092431;28;20038;-86
2021/07/09 04:13:21;;;;;;;12.40;11.10;;;17.70;82.00;;;;;;5110843;28;20043;-85
2021/07/09 04:15:47;;;;;;;14.90;12.82;;;17.80;82.20;;;;;;5076061;28;20371;-87
2021/07/09 04:18:13;;;;;;;13.05;10.93;;;17.80;82.50;;;;;;5093488;28;20452;-86
2021/07/09 04:20:38;;;;;;;14.07;11.48;;;17.70;82.00;;;;;;5092512;28;20020;-85
2021/07/09 04:23:04;;;;;;;13.52;11.60;;;17.70;82.10;;;;;;5093558;28;20399;-86
2021/07/09 04:25:30;;;;;;;13.35;12.00;;;17.80;82.00;;;;;;5110197;28;20027;-86
2021/07/09 04:27:55;;;;;;;16.50;12.70;;;17.80;81.90;;;;;;5111532;28;20051;-86
2021/07/09 04:30:21;;;;;;;14.38;11.25;;;17.80;81.70;;;;;;5093726;28;20023;-87
2021/07/09 04:32:47;;;;;;;14.50;11.70;;;17.80;81.70;;;;;;5109480;28;20081;-86
2021/07/09 04:35:13;;;;;;;16.30;12.25;;;17.80;81.80;;;;;;5076833;28;20034;-86
2021/07/09 04:37:39;;;;;;;15.38;11.90;;;17.90;81.60;;;;;;5096994;28;20091;-82
2021/07/09 04:40:05;;;;;;;13.15;11.07;;;18.00;81.40;;;;;;5097314;28;20051;-84
2021/07/09 04:42:31;;;;;;;14.23;11.82;;;18.00;81.20;;;;;;5097592;28;20513;-86
2021/07/09 04:44:57;;;;;;;16.38;13.23;;;18.20;81.00;;;;;;5097025;28;20028;-87
2021/07/09 04:47:22;;;;;;;17.05;13.30;;;18.60;80.10;;;;;;5097845;28;20028;-87
2021/07/09 04:49:48;;;;;;;15.60;12.73;;;19.00;79.10;;;;;;5096673;28;20736;-86
2021/07/09 04:52:14;;;;;;;15.68;13.43;;;19.20;78.40;;;;;;5113909;28;20056;-84
2021/07/09 04:54:39;;;;;;;13.82;12.27;;;19.60;77.60;;;;;;5097134;28;20040;-83
2021/07/09 04:57:05;;;;;;;16.33;13.60;;;20.30;76.10;;;;;;5096711;28;20019;-86
2021/07/09 04:59:31;;;;;;;17.05;13.23;;;20.70;74.40;;;;;;5097270;28;20469;-86
2021/07/09 05:01:56;;;;;;;14.02;12.57;;;20.70;73.70;;;;;;5096349;28;20036;-87
2021/07/09 05:04:22;;;;;;;16.60;13.07;;;20.70;74.10;;;;;;5097047;28;20135;-86
2021/07/09 05:06:48;;;;;;;16.35;12.75;;;20.90;73.30;;;;;;5112879;28;20061;-86
2021/07/09 05:09:14;;;;;;;13.85;12.38;;;20.90;72.70;;;;;;5113643;28;20030;-85
2021/07/09 05:11:40;;;;;;;16.10;12.45;;;21.20;72.20;;;;;;5114993;28;20054;-83
2021/07/09 05:14:06;;;;;;;13.50;11.35;;;21.50;71.10;;;;;;5096949;28;20039;-85
2021/07/09 05:16:34;;;;;;;13.55;11.90;;;21.70;70.70;;;;;;5114628;28;20057;-85
2021/07/09 05:19:00;;;;;;;13.52;11.90;;;22.00;70.00;;;;;;5114486;28;20055;-85
2021/07/09 05:21:26;;;;;;;12.25;10.73;;;22.30;68.80;;;;;;5114103;28;20392;-86
2021/07/09 05:23:53;;;;;;;13.13;11.02;;;22.30;68.30;;;;;;5112639;28;20024;-86
2021/07/09 05:26:19;;;;;;;14.95;11.80;;;22.30;68.00;;;;;;5114980;28;20124;-85
2021/07/09 05:28:44;;;;;;;12.32;11.05;;;22.70;67.20;;;;;;5096645;28;20031;-83
2021/07/09 05:31:10;;;;;;;13.70;10.88;;;23.20;66.00;;;;;;5113272;28;20514;-85
2021/07/09 05:33:36;;;;;;;15.27;11.10;;;23.80;64.20;;;;;;5079989;28;20023;-86
2021/07/09 05:36:02;;;;;;;11.07;9.75;;;24.40;62.70;;;;;;5115521;28;20485;-86
2021/07/09 05:38:28;;;;;;;11.88;10.68;;;24.80;61.60;;;;;;5114646;28;20032;-85
2021/07/09 05:40:54;;;;;;;12.40;10.57;;;24.90;60.50;;;;;;5115746;28;20039;-88
2021/07/09 05:43:20;;;;;;;11.93;9.95;;;24.60;60.70;;;;;;5098156;28;20043;-87
2021/07/09 05:45:46;;;;;;;10.63;9.07;;;24.50;60.80;;;;;;5116726;28;20038;-84
2021/07/09 05:48:13;;;;;;;10.90;9.80;;;24.10;61.20;;;;;;5098508;28;20036;-86
2021/07/09 05:50:40;;;;;;;10.85;9.70;;;23.40;62.40;;;;;;5117486;28;20079;-86
2021/07/09 05:53:06;;;;;;;11.40;10.30;;;22.90;63.50;;;;;;5099274;28;20028;-86
2021/07/09 05:55:32;;;;;;;12.95;10.18;;;22.60;64.40;;;;;;5114667;28;20054;-86
2021/07/09 05:57:57;;;;;;;10.30;9.20;;;22.80;64.60;;;;;;5098510;28;20355;-85
2021/07/09 06:00:23;;;;;;;10.57;9.57;;;23.60;63.30;;;;;;5081558;28;20024;-87
2021/07/09 06:02:49;;;;;;;11.20;9.73;;;24.30;61.40;;;;;;5112983;28;20399;-82
2021/07/09 06:05:15;;;;;;;10.38;9.27;;;25.10;59.70;;;;;;5112170;28;20118;-87
2021/07/09 06:07:41;;;;;;;10.00;8.95;;;25.80;57.60;;;;;;5114335;28;20134;-87
2021/07/09 06:10:07;;;;;;;11.45;9.38;;;26.40;55.80;;;;;;5095231;28;20046;-87
2021/07/09 06:12:33;;;;;;;10.00;8.70;;;26.50;54.70;;;;;;5112756;28;20020;-86
2021/07/09 06:14:59;;;;;;;9.65;8.13;;;26.60;54.60;;;;;;5078954;28;20063;-86
2021/07/09 06:17:27;;;;;;;9.73;8.68;;;26.80;54.10;;;;;;5096287;28;20459;-87
2021/07/09 06:19:53;;;;;;;11.40;9.02;;;26.90;53.50;;;;;;5112103;28;20030;-84
2021/07/09 06:22:18;;;;;;;11.98;9.45;;;26.90;53.80;;;;;;5112766;28;20039;-85
2021/07/09 06:24:44;;;;;;;10.60;9.40;;;27.30;52.10;;;;;;5112637;28;20024;-87
2021/07/09 06:27:10;;;;;;;10.77;8.50;;;27.60;51.50;;;;;;5078032;28;20130;-86
2021/07/09 06:29:35;;;;;;;14.18;9.63;;;27.80;50.50;;;;;;5096130;28;20123;-87
2021/07/09 06:32:01;;;;;;;11.52;9.02;;;28.10;50.60;;;;;;5111986;28;20210;-85
2021/07/09 06:34:27;;;;;;;10.70;9.15;;;28.50;50.20;;;;;;5113028;28;20073;-85
2021/07/09 06:36:53;;;;;;;11.40;8.75;;;28.90;48.90;;;;;;5112200;28;20069;-83
2021/07/09 06:39:18;;;;;;;8.77;7.90;;;29.10;48.70;;;;;;5077282;28;20023;-85
2021/07/09 06:41:44;;;;;;;8.70;7.75;;;29.30;47.90;;;;;;5094685;28;20491;-86
2021/07/09 06:44:10;;;;;;;8.07;7.28;;;29.50;47.30;;;;;;5111958;28;20031;-87
2021/07/09 06:46:36;;;;;;;8.43;7.65;;;29.40;47.40;;;;;;5112060;28;20081;-86
2021/07/09 06:49:01;;;;;;;7.53;6.47;;;29.70;47.10;;;;;;5111358;28;20035;-86
2021/07/09 06:51:27;;;;;;;8.02;7.22;;;30.00;46.60;;;;;;5094449;28;20058;-88
2021/07/09 06:53:53;;;;;;;7.20;6.30;;;30.30;45.20;;;;;;5094703;28;20471;-86
2021/07/09 06:56:18;;;;;;;7.68;6.85;;;30.20;46.10;;;;;;5077195;28;20023;-86
2021/07/09 06:58:44;;;;;;;7.93;6.38;;;30.30;45.20;;;;;;5077101;28;20034;-87
2021/07/09 07:01:10;;;;;;;8.60;6.45;;;30.50;45.30;;;;;;5077179;28;20047;-86
2021/07/09 07:03:36;;;;;;;7.20;6.00;;;31.10;44.70;;;;;;5096620;28;20034;-87
2021/07/09 07:06:01;;;;;;;7.78;7.03;;;31.30;43.50;;;;;;5112892;28;20122;-83
2021/07/09 07:08:27;;;;;;;6.63;5.95;;;31.40;43.10;;;;;;5094480;28;20027;-87
2021/07/09 07:10:54;;;;;;;6.55;5.95;;;31.80;42.70;;;;;;5111166;28;20122;-87
2021/07/09 07:13:24;;;;;;;5.95;5.35;;;32.00;42.40;;;;;;5111614;28;20023;-86
2021/07/09 07:15:50;;;;;;;6.18;5.57;;;32.00;42.20;;;;;;5093933;28;20169;-86
2021/07/09 07:18:16;;;;;;;5.63;5.13;;;31.90;42.60;;;;;;5093234;28;20061;-87
2021/07/09 07:20:45;;;;;;;5.65;5.15;;;31.70;42.70;;;;;;5111084;28;20024;-86
2021/07/09 07:23:12;;;;;;;5.72;5.00;;;31.90;42.50;;;;;;5111155;28;20053;-85
2021/07/09 07:25:39;;;;;;;6.78;5.05;;;32.30;42.30;;;;;;5110509;28;20079;-86
2021/07/09 07:28:06;;;;;;;6.55;5.20;;;32.50;41.80;;;;;;5112916;28;20080;-85
2021/07/09 07:30:32;;;;;;;5.05;4.55;;;32.80;41.80;;;;;;5113232;28;20114;-84
2021/07/09 07:32:57;;;;;;;4.90;4.43;;;33.00;41.00;;;;;;5079440;28;20027;-85
2021/07/09 07:35:23;;;;;;;4.32;3.92;;;33.20;40.80;;;;;;5095092;28;20053;-86
2021/07/09 07:37:49;;;;;;;4.57;4.18;;;33.30;40.20;;;;;;5095191;28;20024;-86
2021/07/09 07:40:16;;;;;;;5.10;3.88;;;33.50;39.80;;;;;;5110203;28;20461;-85
2021/07/09 07:42:42;;;;;;;4.40;3.85;;;33.60;39.20;;;;;;5110697;28;20049;-84
2021/07/09 07:45:08;;;;;;;4.45;4.05;;;33.80;38.80;;;;;;5109623;28;20439;-85
2021/07/09 07:47:35;;;;;;;4.22;3.85;;;33.70;38.70;;;;;;5093968;28;20056;-86
2021/07/09 07:50:01;;;;;;;3.75;3.45;;;33.50;39.60;;;;;;5094213;28;20040;-86
2021/07/09 07:52:26;;;;;;;4.88;4.38;;;33.30;39.80;;;;;;5094566;28;20044;-88
2021/07/09 07:54:52;;;;;;;3.80;3.50;;;33.40;39.60;;;;;;5111302;28;20490;-87
2021/07/09 07:57:20;;;;;;;4.00;3.60;;;33.50;39.60;;;;;;5093356;28;20062;-86
2021/07/09 07:59:46;;;;;;;4.10;3.70;;;33.40;39.20;;;;;;5095443;28;20467;-87
2021/07/09 08:02:12;;;;;;;3.20;2.83;;;33.40;39.60;;;;;;5113092;28;20023;-87
2021/07/09 08:04:38;;;;;;;4.18;2.88;;;33.30;39.40;;;;;;5095494;28;20027;-88
2021/07/09 08:07:05;;;;;;;3.28;2.90;;;33.20;38.70;;;;;;5111249;28;20173;-88
2021/07/09 08:09:31;;;;;;;3.08;2.60;;;33.40;38.70;;;;;;5093084;28;20043;-87
2021/07/09 08:12:01;;;;;;;2.75;2.55;;;33.40;38.30;;;;;;5095564;28;20031;-87
2021/07/09 08:14:28;;;;;;;3.55;3.00;;;33.40;38.40;;;;;;5113718;28;20027;-88
2021/07/09 08:16:53;;;;;;;3.65;3.10;;;33.60;38.70;;;;;;5097785;28;20024;-87
2021/07/09 08:19:20;;;;;;;3.60;3.28;;;33.70;38.50;;;;;;5114815;28;20370;-88
2021/07/09 08:21:47;;;;;;;3.58;3.28;;;33.90;38.60;;;;;;5110795;28;20115;-88
2021/07/09 08:24:14;;;;;;;3.97;3.55;;;33.80;38.60;;;;;;5110842;28;20036;-86
2021/07/09 08:26:39;;;;;;;5.38;3.47;;;33.60;38.30;;;;;;5110495;28;20126;-87
2021/07/09 08:29:05;;;;;;;3.10;2.80;;;33.10;39.50;;;;;;5093268;28;20102;-89
2021/07/09 08:31:34;;;;;;;3.85;2.50;;;32.70;39.70;;;;;;5092666;28;20063;-87
2021/07/09 08:33:59;;;;;;;3.10;2.80;;;32.60;39.70;;;;;;5077080;28;20059;-87
2021/07/09 08:36:25;;;;;;;4.53;2.53;;;32.40;39.60;;;;;;5092621;28;20419;-87
2021/07/09 08:38:52;;;;;;;3.42;2.38;;;32.10;40.00;;;;;;5110208;28;20468;-89
2021/07/09 08:41:18;;;;;;;3.17;2.28;;;31.60;40.50;;;;;;5110856;28;20031;-89
2021/07/09 08:43:44;;;;;;;3.15;2.47;;;31.10;41.00;;;;;;5096924;28;20032;-90
2021/07/09 08:46:10;;;;;;;2.50;2.30;;;31.20;41.80;;;;;;5078253;28;20089;-89
2021/07/09 08:48:36;;;;;;;2.60;1.77;;;31.60;41.50;;;;;;5110940;28;20493;-89
2021/07/09 08:51:03;;;;;;;2.67;1.42;;;32.20;41.10;;;;;;5111777;28;20052;-89
2021/07/09 08:53:29;;;;;;;1.83;1.30;;;32.60;40.10;;;;;;5110069;28;20027;-89
2021/07/09 08:55:55;;;;;;;2.33;1.50;;;33.10;39.20;;;;;;5077316;28;20118;-89
2021/07/09 08:58:21;;;;;;;2.00;1.42;;;33.40;39.40;;;;;;5110664;28;20026;-86
2021/07/09 09:00:46;;;;;;;1.88;1.33;;;33.70;38.50;;;;;;5111102;28;20155;-87
2021/07/09 09:03:19;;;;;;;4.50;1.80;;;33.60;37.00;;;;;;5111811;28;20149;-88
2021/07/09 09:05:47;;;;;;;1.80;0.90;;;33.60;38.40;;;;;;5110405;28;20047;-86
2021/07/09 09:08:15;;;;;;;2.03;1.17;;;33.70;38.90;;;;;;5109859;28;20032;-86
2021/07/09 09:10:48;;;;;;;1.48;1.10;;;33.80;38.70;;;;;;5109423;28;20119;-88
2021/07/09 09:13:23;;;;;;;2.03;1.15;;;34.10;38.10;;;;;;5109665;28;20035;-88
2021/07/09 09:16:29;;;;;;;2.42;1.10;;;34.30;38.20;;;;;;5109618;28;20035;-86
2021/07/09 09:18:57;;;;;;;1.80;1.10;;;34.20;37.70;;;;;;5010976;28;20477;-87
2021/07/09 09:21:25;;;;;;;1.83;1.02;;;34.00;37.50;;;;;;5075827;28;20046;-86
2021/07/09 09:23:50;;;;;;;1.42;1.00;;;33.60;38.30;;;;;;5113371;28;20451;-86
2021/07/09 09:26:38;;;;;;;5.10;1.70;;;33.30;38.50;;;;;;5113536;28;20042;-87
2021/07/09 09:29:03;;;;;;;2.03;1.52;;;33.00;39.50;;;;;;5113337;28;20845;-88
2021/07/09 09:31:36;;;;;;;2.08;1.48;;;33.20;39.70;;;;;;5112422;28;20072;-87
2021/07/09 09:34:04;;;;;;;2.55;1.73;;;33.50;39.60;;;;;;5112978;28;20032;-87
2021/07/09 09:36:30;;;;;;;3.50;2.40;;;33.70;39.50;;;;;;5079447;28;20023;-88
2021/07/09 09:38:59;;;;;;;3.33;2.45;;;33.70;39.20;;;;;;5114615;28;20019;-87
2021/07/09 09:41:25;;;;;;;3.47;1.95;;;33.70;39.30;;;;;;5095131;28;20085;-87
2021/07/09 09:43:51;;;;;;;2.45;2.10;;;33.70;39.40;;;;;;5115252;28;20484;-85
2021/07/09 09:46:26;;;;;;;4.35;2.10;;;33.90;39.40;;;;;;5096128;28;20032;-87
2021/07/09 09:48:52;;;;;;;3.88;2.80;;;34.40;38.50;;;;;;5096372;28;20093;-88
2021/07/09 09:51:24;;;;;;;3.65;2.22;;;34.80;37.70;;;;;;5113042;28;20043;-86
2021/07/09 09:53:52;;;;;;;2.92;2.40;;;34.90;37.60;;;;;;5114928;28;20032;-87
2021/07/09 09:56:36;;;;;;;4.88;3.35;;;34.50;37.60;;;;;;5112673;28;20093;-86
2021/07/09 09:59:17;;;;;;;5.15;4.00;;;34.60;37.70;;;;;;5112262;28;20027;-88
2021/07/09 10:01:57;;;;;;;4.90;3.17;;;34.70;37.90;;;;;;5112429;28;20088;-86
2021/07/09 10:04:26;;;;;;;5.35;3.50;;;34.60;38.10;;;;;;5113574;28;20027;-85
2021/07/09 10:06:52;;;;;;;5.63;4.88;;;34.80;38.50;;;;;;5112641;28;20024;-85
2021/07/09 10:09:19;;;;;;;5.88;5.25;;;34.90;38.00;;;;;;5096285;28;20426;-90
2021/07/09 10:11:45;;;;;;;4.72;4.32;;;35.20;37.80;;;;;;5112217;28;20646;-86
2021/07/09 10:14:13;;;;;;;3.95;3.55;;;35.20;37.90;;;;;;5113754;28;20033;-85
2021/07/09 10:16:40;;;;;;;4.88;4.47;;;35.40;38.00;;;;;;5111115;28;20027;-85
2021/07/09 10:19:09;;;;;;;4.15;3.75;;;35.80;36.90;;;;;;5112323;28;20536;-86
2021/07/09 10:21:36;;;;;;;4.28;3.88;;;35.70;36.60;;;;;;5112894;28;20023;-87
2021/07/09 10:24:02;;;;;;;4.65;4.25;;;35.60;36.70;;;;;;5112142;28;20073;-87
2021/07/09 10:26:28;;;;;;;4.40;4.00;;;35.60;36.80;;;;;;5112410;28;20032;-85
2021/07/09 10:29:18;;;;;;;4.47;4.07;;;35.30;37.50;;;;;;5111906;28;20026;-87
2021/07/09 10:31:46;;;;;;;6.10;4.57;;;34.60;37.90;;;;;;5111848;28;20076;-88
2021/07/09 10:34:34;;;;;;;7.40;5.50;;;33.70;39.50;;;;;;5112961;28;20119;-90
2021/07/09 10:37:01;;;;;;;6.47;5.63;;;32.80;40.70;;;;;;5112791;28;20059;-87
2021/07/09 10:39:45;;;;;;;7.05;6.20;;;31.90;42.00;;;;;;5113711;28;20062;-87
2021/07/09 10:42:30;;;;;;;7.93;6.28;;;31.10;43.10;;;;;;5112406;28;20100;-87
2021/07/09 10:45:05;;;;;;;8.13;7.28;;;30.50;44.70;;;;;;5113011;28;20110;-88
2021/07/09 10:47:52;;;;;;;7.88;7.10;;;29.90;45.80;;;;;;5111220;28;20065;-83
2021/07/09 10:50:39;;;;;;;10.73;7.93;;;29.40;46.60;;;;;;5113147;28;20030;-86
2021/07/09 10:53:11;;;;;;;9.65;7.93;;;29.00;47.40;;;;;;5096985;28;20043;-86
2021/07/09 10:55:42;;;;;;;8.90;7.60;;;28.70;48.30;;;;;;5110455;28;20432;-87
2021/07/09 10:58:07;;;;;;;10.88;7.68;;;28.50;48.60;;;;;;5111634;28;20038;-87
2021/07/09 11:00:55;;;;;;;9.93;8.23;;;28.30;49.20;;;;;;5110652;28;20023;-85
2021/07/09 11:03:28;;;;;;;10.23;9.23;;;28.20;50.00;;;;;;5111739;28;20020;-86
2021/07/09 11:05:58;;;;;;;11.45;10.20;;;28.10;50.90;;;;;;5111056;28;20028;-86
2021/07/09 11:08:33;;;;;;;12.50;11.05;;;27.80;52.10;;;;;;5095960;28;20032;-84
2021/07/09 11:11:00;;;;;;;10.15;9.18;;;27.50;52.80;;;;;;5115943;28;20020;-87
2021/07/09 11:16:31;;;;;;;9.55;8.55;;;27.30;52.80;;;;;;5112871;28;20088;-86
2021/07/09 11:19:00;;;;;;;10.82;9.73;;;27.30;52.00;;;;;;5110409;28;20391;-85
2021/07/09 11:21:32;;;;;;;12.20;9.82;;;27.30;51.10;;;;;;5111420;28;20167;-85
2021/07/09 11:24:05;;;;;;;11.07;9.85;;;27.30;51.50;;;;;;5110636;28;20138;-85
2021/07/09 11:26:50;;;;;;;;;;;27.40;51.60;;;;;;5111557;28;20035;-86
2021/07/09 11:29:47;;;;;;;13.30;11.93;;;27.50;51.70;;;;;;5109973;28;20335;-84
2021/07/09 11:32:16;;;;;;;13.68;12.27;;;27.50;51.70;;;;;;5095179;27;20040;-87
2021/07/09 11:34:45;;;;;;;11.65;10.63;;;27.50;52.30;;;;;;5109891;28;20531;-85
2021/07/09 11:37:19;;;;;;;17.27;14.60;;;27.50;52.10;;;;;;5113617;28;20031;-86
2021/07/09 11:39:59;;;;;;;13.30;11.10;;;27.60;51.90;;;;;;5109730;28;20477;-85
2021/07/09 11:42:30;;;;;;;12.82;11.50;;;27.60;52.00;;;;;;5110554;28;20360;-87
2021/07/09 11:44:59;;;;;;;11.27;10.27;;;27.80;51.60;;;;;;5110934;28;20053;-86
2021/07/09 11:47:30;;;;;;;11.40;10.23;;;27.80;51.30;;;;;;5094100;28;20023;-87
2021/07/09 11:49:58;;;;;;;10.30;9.40;;;28.10;50.90;;;;;;5109716;28;20035;-87
2021/07/09 11:52:28;;;;;;;10.38;9.30;;;28.30;50.10;;;;;;5110481;28;20050;-88
2021/07/09 11:54:56;;;;;;;10.95;9.80;;;28.50;49.70;;;;;;5110130;28;20185;-86
2021/07/09 11:57:24;;;;;;;10.38;9.27;;;28.70;49.10;;;;;;5110226;28;20027;-86
2021/07/09 11:59:51;;;;;;;9.52;8.63;;;28.70;49.30;;;;;;5109576;28;20036;-86
2021/07/09 12:02:19;;;;;;;10.57;9.63;;;29.00;49.50;;;;;;5111211;28;20039;-86
2021/07/09 12:05:00;;;;;;;9.43;8.48;;;29.30;48.70;;;;;;5092538;28;20121;-85
2021/07/09 12:07:33;;;;;;;11.00;10.00;;;29.60;48.20;;;;;;5093403;28;20366;-87
2021/07/09 12:10:01;;;;;;;10.60;9.70;;;29.80;46.90;;;;;;5109136;28;20042;-87
2021/07/09 12:12:30;;;;;;;10.30;9.30;;;29.80;46.50;;;;;;5109983;28;20023;-86
2021/07/09 12:15:02;;;;;;;10.32;9.38;;;29.70;46.80;;;;;;5109039;28;20032;-85
2021/07/09 12:17:30;;;;;;;11.02;10.02;;;29.60;46.80;;;;;;5110228;28;20111;-88
2021/07/09 12:20:00;;;;;;;11.10;10.00;;;29.50;46.70;;;;;;5110034;28;20159;-85
2021/07/09 12:22:41;;;;;;;9.65;8.70;;;29.40;46.80;;;;;;5110270;28;20043;-87
2021/07/09 12:25:12;;;;;;;7.07;6.47;;;29.40;47.30;;;;;;5110925;28;20248;-85
2021/07/09 12:27:38;;;;;;;7.85;7.15;;;29.40;45.80;;;;;;5110072;28;20418;-86
2021/07/09 12:30:19;;;;;;;7.63;6.93;;;29.60;45.90;;;;;;5109512;28;20024;-85
2021/07/09 12:32:47;;;;;;;9.20;8.30;;;29.90;45.60;;;;;;5109610;28;20016;-84
2021/07/09 12:35:14;;;;;;;8.73;6.75;;;29.90;45.00;;;;;;5109491;28;20032;-86
2021/07/09 12:37:40;;;;;;;7.40;6.80;;;29.70;45.40;;;;;;5092761;28;20047;-87
2021/07/09 12:40:14;;;;;;;8.98;8.18;;;29.70;45.30;;;;;;5108663;28;20462;-86
2021/07/09 12:42:41;;;;;;;7.80;7.10;;;29.50;45.70;;;;;;5093219;28;20566;-86